Terminal Aerodrome Forecast
Issued by NWS Sioux Falls, SD

Home | Current Version | Previous Version | Graphics & Text | Print | Product List | Glossary On
Versions: 1 2 3 4 5 6 7 8 9 10 11 12 13 14 15
336
FTUS43 KFSD 260520
TAFFSD
TAF
KFSD 260520Z 2606/2706 21007KT P6SM SCT060 SCT120
     FM261100 24007KT P6SM SCT080
     FM261500 27009KT P6SM SKC
     FM262200 23008KT P6SM SKC
     FM270100 20006KT P6SM SKC=

USA.gov is the U.S. government's official web portal to all federal, state and local government web resources and services.